Time;durP1;ratioP1;P1;durP2;ratioP2;P2;SDS_P1;SDS_P2;PMS_P1;PMS_P2;Temp;Humidity;BMP_temperature;BMP_pressure;BME280_temperature;BME280_humidity;BME280_pressure;Samples;Min_cycle;Max_cycle;Signal;HPM_P1;HPM_P2
2021/09/14 00:00:08;;;;;;;14.90;13.80;;;15.80;99.90;;;;;;4999755;28;20201;-76
2021/09/14 00:02:38;;;;;;;15.63;14.13;;;15.80;99.90;;;;;;5002897;28;20581;-76
2021/09/14 00:05:06;;;;;;;15.17;14.07;;;15.70;99.90;;;;;;4998950;28;20202;-76
2021/09/14 00:07:34;;;;;;;14.87;13.77;;;15.70;99.90;;;;;;5002061;28;20230;-76
2021/09/14 00:10:01;;;;;;;15.20;13.90;;;15.70;99.90;;;;;;4986415;28;20719;-76
2021/09/14 00:12:28;;;;;;;15.13;14.03;;;15.60;99.90;;;;;;4980177;28;20299;-76
2021/09/14 00:14:54;;;;;;;14.33;13.33;;;15.60;99.90;;;;;;5004265;28;20209;-76
2021/09/14 00:17:21;;;;;;;15.03;13.90;;;15.60;99.90;;;;;;4997443;28;20323;-76
2021/09/14 00:19:48;;;;;;;14.87;13.87;;;15.60;99.90;;;;;;5003562;28;20246;-76
2021/09/14 00:22:15;;;;;;;15.87;14.47;;;15.50;99.90;;;;;;4997397;28;20221;-76
2021/09/14 00:24:43;;;;;;;14.87;13.77;;;15.50;99.90;;;;;;5002693;28;20209;-76
2021/09/14 00:27:10;;;;;;;14.60;13.50;;;15.40;99.90;;;;;;5003924;28;20208;-76
2021/09/14 00:29:37;;;;;;;15.00;13.90;;;15.40;99.90;;;;;;4979805;28;20202;-76
2021/09/14 00:32:04;;;;;;;14.67;13.57;;;15.40;99.90;;;;;;4986324;28;20212;-75
2021/09/14 00:34:31;;;;;;;15.30;14.20;;;15.40;99.90;;;;;;4979370;28;20201;-76
2021/09/14 00:36:58;;;;;;;15.90;14.60;;;15.40;99.90;;;;;;4986228;28;20209;-76
2021/09/14 00:39:24;;;;;;;15.27;14.20;;;15.40;99.90;;;;;;4995981;28;20201;-75
2021/09/14 00:41:52;;;;;;;15.57;14.57;;;15.40;99.90;;;;;;5006155;23;20622;-78
2021/09/14 00:44:19;;;;;;;15.10;14.10;;;15.40;99.90;;;;;;5022154;28;20250;-78
2021/09/14 00:46:47;;;;;;;14.60;13.60;;;15.40;99.90;;;;;;5046487;28;20192;-78
2021/09/14 00:49:15;;;;;;;16.10;14.80;;;15.40;99.90;;;;;;5021890;28;20735;-78
2021/09/14 00:51:42;;;;;;;15.37;14.27;;;15.30;99.90;;;;;;5029105;28;20219;-77
2021/09/14 00:54:14;;;;;;;14.60;13.60;;;15.20;99.90;;;;;;5032723;28;20258;-78
2021/09/14 00:56:41;;;;;;;15.43;14.20;;;15.30;99.90;;;;;;5018588;28;20255;-78
2021/09/14 00:59:10;;;;;;;14.97;13.87;;;15.30;99.90;;;;;;5018612;28;20221;-78
2021/09/14 01:01:36;;;;;;;15.10;14.00;;;15.20;99.90;;;;;;5023262;28;20211;-78
2021/09/14 01:04:05;;;;;;;16.43;15.27;;;15.30;99.90;;;;;;5021088;28;20200;-78
2021/09/14 01:06:32;;;;;;;15.70;14.60;;;15.30;99.90;;;;;;5043151;28;20202;-78
2021/09/14 01:09:00;;;;;;;16.00;14.80;;;15.30;99.90;;;;;;5016690;28;20203;-78
2021/09/14 01:11:28;;;;;;;15.57;14.47;;;15.30;99.90;;;;;;5031527;28;20735;-78
2021/09/14 01:14:01;;;;;;;16.13;14.90;;;15.20;99.90;;;;;;5024440;28;20214;-78
2021/09/14 01:16:30;;;;;;;15.33;14.23;;;15.30;99.90;;;;;;5025248;28;20573;-78
2021/09/14 01:18:57;;;;;;;15.83;14.63;;;15.20;99.90;;;;;;5027376;28;20201;-78
2021/09/14 01:21:24;;;;;;;14.93;13.83;;;15.20;99.90;;;;;;5014705;28;20204;-78
2021/09/14 01:23:52;;;;;;;15.80;14.60;;;15.10;99.90;;;;;;5013872;28;20194;-78
2021/09/14 01:26:19;;;;;;;14.00;13.00;;;15.10;99.90;;;;;;5035602;28;20199;-77
2021/09/14 01:28:47;;;;;;;15.53;14.30;;;15.10;99.90;;;;;;5020138;28;20295;-77
2021/09/14 01:31:15;;;;;;;15.13;14.03;;;15.10;99.90;;;;;;5016252;28;20199;-78
2021/09/14 01:33:47;;;;;;;15.03;13.93;;;15.10;99.90;;;;;;5011799;28;20216;-78
2021/09/14 01:36:14;;;;;;;16.30;15.07;;;15.10;99.90;;;;;;5015287;28;20219;-78
2021/09/14 01:38:42;;;;;;;16.03;14.73;;;15.00;99.90;;;;;;5022652;28;20664;-78
2021/09/14 01:41:11;;;;;;;16.00;14.83;;;15.00;99.90;;;;;;5036642;28;20188;-78
2021/09/14 01:43:40;;;;;;;15.73;14.57;;;15.00;99.90;;;;;;5025814;28;20331;-78
2021/09/14 01:46:09;;;;;;;15.30;14.20;;;15.00;99.90;;;;;;5020050;28;20196;-78
2021/09/14 01:48:37;;;;;;;17.53;16.13;;;15.00;99.90;;;;;;5020768;28;20236;-77
2021/09/14 01:51:04;;;;;;;15.87;14.67;;;15.00;99.90;;;;;;5022296;28;20203;-78
2021/09/14 01:53:32;;;;;;;15.93;14.73;;;14.90;99.90;;;;;;5018803;28;20361;-78
2021/09/14 01:56:03;;;;;;;15.90;14.80;;;14.90;99.90;;;;;;5024753;28;20745;-78
2021/09/14 01:58:38;;;;;;;16.17;14.97;;;14.90;99.90;;;;;;5021125;28;20203;-78
2021/09/14 02:01:16;;;;;;;16.00;14.90;;;14.90;99.90;;;;;;5023705;28;20203;-78
2021/09/14 02:03:52;;;;;;;17.23;16.03;;;14.90;99.90;;;;;;5018018;28;20296;-78
2021/09/14 02:06:30;;;;;;;16.83;15.63;;;14.90;99.90;;;;;;5036872;28;20203;-78
2021/09/14 02:34:12;;;;;;;15.20;14.10;;;14.50;99.90;;;;;;5019825;28;20214;-77
2021/09/14 02:39:45;;;;;;;15.70;14.60;;;14.50;99.90;;;;;;5017872;28;20203;-78
2021/09/14 02:42:34;;;;;;;17.23;15.83;;;14.40;99.90;;;;;;5019959;28;20227;-80
2021/09/14 02:56:11;;;;;;;15.80;14.70;;;14.50;99.90;;;;;;5028427;28;20200;-80
2021/09/14 02:56:25;;;;;;;16.50;15.20;;;14.50;99.90;;;;;;5002136;28;20250;-80
2021/09/14 02:58:51;;;;;;;15.43;14.30;;;14.50;99.90;;;;;;4997668;28;20204;-79
2021/09/14 03:01:18;;;;;;;17.53;16.23;;;14.40;99.90;;;;;;5017085;28;20259;-80
2021/09/14 03:03:49;;;;;;;16.27;15.07;;;14.40;99.90;;;;;;5003750;28;20217;-79
2021/09/14 03:06:17;;;;;;;16.20;15.10;;;14.50;99.90;;;;;;5001390;28;20196;-80
2021/09/14 03:08:44;;;;;;;17.20;15.73;;;14.50;99.90;;;;;;5009615;28;20207;-78
2021/09/14 03:11:16;;;;;;;16.33;15.07;;;14.50;99.90;;;;;;5015322;28;20262;-78
2021/09/14 03:13:55;;;;;;;16.70;15.50;;;14.50;99.90;;;;;;5022890;28;20223;-79
2021/09/14 03:16:23;;;;;;;20.00;18.63;;;14.60;99.90;;;;;;5017314;28;20226;-78
2021/09/14 03:18:51;;;;;;;19.17;17.87;;;14.60;99.90;;;;;;5006661;28;20290;-77
2021/09/14 03:21:18;;;;;;;17.50;16.17;;;14.70;99.90;;;;;;5013881;28;20202;-79
2021/09/14 03:23:46;;;;;;;12.67;11.47;;;14.70;99.90;;;;;;5020205;28;20637;-78
2021/09/14 03:26:15;;;;;;;9.40;8.47;;;14.70;99.90;;;;;;5021948;28;20230;-79
2021/09/14 03:28:42;;;;;;;10.43;9.23;;;14.70;99.90;;;;;;5007156;28;20292;-77
2021/09/14 03:31:10;;;;;;;9.90;8.90;;;14.70;99.90;;;;;;4999665;28;20684;-78
2021/09/14 03:33:38;;;;;;;10.13;9.13;;;14.70;99.90;;;;;;4995515;28;20220;-79
2021/09/14 03:36:06;;;;;;;9.33;8.43;;;14.70;99.90;;;;;;5016824;28;20294;-79
2021/09/14 03:38:33;;;;;;;9.37;8.47;;;14.70;99.90;;;;;;5006596;28;20219;-77
2021/09/14 03:41:00;;;;;;;10.10;9.10;;;14.70;99.90;;;;;;5007846;28;20210;-78
2021/09/14 03:43:28;;;;;;;9.93;8.93;;;14.70;99.90;;;;;;5023104;28;20223;-79
2021/09/14 03:45:54;;;;;;;10.67;9.67;;;14.70;99.90;;;;;;5040969;28;20199;-79
2021/09/14 03:48:25;;;;;;;9.27;8.33;;;14.70;99.90;;;;;;5021509;28;20664;-77
2021/09/14 03:50:53;;;;;;;12.43;11.17;;;14.60;99.90;;;;;;5028545;28;20227;-78
2021/09/14 03:53:21;;;;;;;8.87;8.07;;;14.60;99.90;;;;;;5022831;28;20313;-79
2021/09/14 03:55:50;;;;;;;9.13;8.23;;;14.60;99.90;;;;;;5013671;28;20664;-76
2021/09/14 03:58:17;;;;;;;9.80;8.50;;;14.60;99.90;;;;;;5015591;28;20253;-80
2021/09/14 04:00:51;;;;;;;10.10;9.20;;;14.60;99.90;;;;;;5022470;28;20877;-79
2021/09/14 04:03:26;;;;;;;14.73;13.43;;;14.50;99.90;;;;;;5019168;28;20234;-79
2021/09/14 04:06:08;;;;;;;10.63;9.63;;;14.50;99.90;;;;;;5015128;28;20320;-78
2021/09/14 04:08:52;;;;;;;10.00;9.10;;;14.50;99.90;;;;;;5014944;28;20691;-79
2021/09/14 04:11:30;;;;;;;9.70;8.80;;;14.40;99.90;;;;;;5021096;28;20200;-78
2021/09/14 04:13:59;;;;;;;11.53;10.47;;;14.40;99.90;;;;;;5020801;28;20262;-78
2021/09/14 04:16:26;;;;;;;8.63;7.83;;;14.40;99.90;;;;;;5016401;28;20651;-79
2021/09/14 04:18:53;;;;;;;9.70;8.70;;;14.40;99.90;;;;;;5013242;28;20199;-78
2021/09/14 04:21:20;;;;;;;10.73;9.73;;;14.30;99.90;;;;;;5024118;28;20210;-77
2021/09/14 04:23:48;;;;;;;10.47;9.47;;;14.30;99.90;;;;;;5008693;28;20265;-78
2021/09/14 04:26:15;;;;;;;10.47;9.57;;;14.30;99.90;;;;;;5021120;28;20200;-77
2021/09/14 04:28:42;;;;;;;8.50;7.70;;;14.30;99.90;;;;;;5015034;28;20203;-78
2021/09/14 04:31:10;;;;;;;10.13;9.13;;;14.30;99.90;;;;;;5017459;28;20204;-79
2021/09/14 04:33:38;;;;;;;13.87;12.77;;;14.20;99.90;;;;;;5019870;28;20306;-79
2021/09/14 04:36:05;;;;;;;17.53;16.27;;;14.20;99.90;;;;;;5014461;28;20207;-78
2021/09/14 04:38:36;;;;;;;13.93;12.73;;;14.20;99.90;;;;;;5010474;28;20624;-78
2021/09/14 04:41:04;;;;;;;14.50;13.40;;;14.20;99.90;;;;;;5015943;28;20210;-79
2021/09/14 04:43:31;;;;;;;9.80;8.60;;;14.20;99.90;;;;;;5015544;28;20661;-79
2021/09/14 04:45:58;;;;;;;10.53;9.43;;;14.20;99.90;;;;;;5020180;28;20200;-78
2021/09/14 04:48:25;;;;;;;14.20;13.00;;;14.20;99.90;;;;;;5021530;28;20207;-78
2021/09/14 04:50:52;;;;;;;9.83;8.83;;;14.20;99.90;;;;;;5025770;28;20226;-78
2021/09/14 04:53:20;;;;;;;18.33;16.93;;;14.10;99.90;;;;;;5018049;28;20274;-79
2021/09/14 04:55:47;;;;;;;19.00;17.70;;;14.10;99.90;;;;;;5020008;28;20249;-79
2021/09/14 04:58:15;;;;;;;12.27;11.20;;;14.10;99.90;;;;;;5018016;28;20206;-79
2021/09/14 05:00:43;;;;;;;10.30;8.87;;;14.10;99.90;;;;;;5012100;28;20208;-79
2021/09/14 05:03:14;;;;;;;10.60;9.60;;;14.10;99.90;;;;;;5022139;28;20612;-77
2021/09/14 05:05:42;;;;;;;11.23;10.13;;;14.00;99.90;;;;;;5017670;28;20697;-78
2021/09/14 05:08:10;;;;;;;16.17;14.80;;;14.00;99.90;;;;;;5021385;28;20203;-79
2021/09/14 05:10:38;;;;;;;11.30;10.30;;;14.10;99.90;;;;;;5023456;28;20207;-79
2021/09/14 05:13:06;;;;;;;13.73;12.57;;;14.10;99.90;;;;;;5022289;28;20603;-79
2021/09/14 05:15:35;;;;;;;9.43;8.53;;;14.10;99.90;;;;;;5019392;28;20203;-79
2021/09/14 05:18:21;;;;;;;10.30;9.10;;;14.20;99.90;;;;;;5017842;28;20195;-79
2021/09/14 05:20:51;;;;;;;9.20;8.23;;;14.20;99.90;;;;;;5022213;28;20212;-78
2021/09/14 05:23:21;;;;;;;9.90;8.73;;;14.30;99.90;;;;;;5024719;28;20269;-78
2021/09/14 05:25:48;;;;;;;11.33;9.13;;;14.40;99.90;;;;;;5019704;28;20199;-79
2021/09/14 05:28:15;;;;;;;11.73;9.03;;;14.40;99.90;;;;;;5029567;28;20210;-79
2021/09/14 05:30:45;;;;;;;9.50;8.60;;;14.50;99.90;;;;;;5020687;28;20196;-81
2021/09/14 05:33:12;;;;;;;9.73;8.80;;;14.50;99.90;;;;;;5005520;28;20226;-79
2021/09/14 05:35:44;;;;;;;14.60;13.30;;;14.60;99.90;;;;;;5026553;28;20211;-79
2021/09/14 05:38:12;;;;;;;9.67;8.70;;;14.70;99.90;;;;;;5024387;28;20206;-79
2021/09/14 05:40:39;;;;;;;9.60;8.60;;;14.70;99.90;;;;;;5024837;28;20211;-78
2021/09/14 05:43:13;;;;;;;12.60;11.40;;;14.80;99.90;;;;;;5043271;28;20292;-79
2021/09/14 05:45:40;;;;;;;13.30;12.30;;;14.90;99.90;;;;;;5020459;28;20231;-80
2021/09/14 05:48:08;;;;;;;10.10;9.20;;;15.00;99.90;;;;;;5011328;28;20214;-78
2021/09/14 05:50:39;;;;;;;10.77;9.00;;;15.10;99.90;;;;;;5014943;28;20199;-79
2021/09/14 05:53:07;;;;;;;10.30;8.90;;;15.20;99.90;;;;;;5021425;28;20291;-79
2021/09/14 05:55:37;;;;;;;9.40;8.40;;;15.20;99.90;;;;;;5018616;28;20205;-79
2021/09/14 05:58:04;;;;;;;9.97;8.97;;;15.40;99.90;;;;;;5019952;28;20208;-79
2021/09/14 06:00:31;;;;;;;9.93;8.93;;;15.50;99.90;;;;;;5021336;28;20690;-79
2021/09/14 06:02:59;;;;;;;8.63;7.83;;;15.60;99.90;;;;;;5002506;28;20715;-79
2021/09/14 06:05:27;;;;;;;11.50;10.33;;;15.70;99.90;;;;;;5013920;28;20555;-80
2021/09/14 06:07:55;;;;;;;8.40;7.57;;;15.80;99.90;;;;;;5020365;28;20220;-79
2021/09/14 06:10:22;;;;;;;14.07;13.07;;;15.90;99.90;;;;;;5026699;28;20209;-83
2021/09/14 06:13:05;;;;;;;16.67;15.50;;;16.00;99.90;;;;;;5019812;28;20288;-83
2021/09/14 06:15:32;;;;;;;13.43;12.43;;;16.00;99.90;;;;;;5018543;28;20750;-78
2021/09/14 06:17:59;;;;;;;12.17;11.17;;;16.10;99.90;;;;;;5010893;28;20204;-79
2021/09/14 06:20:31;;;;;;;13.73;12.73;;;16.20;99.90;;;;;;5007144;28;20287;-79
2021/09/14 06:22:58;;;;;;;13.80;12.80;;;16.30;99.90;;;;;;5004532;28;20238;-79
2021/09/14 06:25:25;;;;;;;7.50;6.80;;;16.40;99.90;;;;;;5019232;28;20237;-78
2021/09/14 06:27:53;;;;;;;9.00;8.20;;;16.50;99.90;;;;;;5016015;28;20668;-79
2021/09/14 06:30:20;;;;;;;12.60;11.70;;;16.60;99.90;;;;;;5023253;28;20692;-79
2021/09/14 06:32:47;;;;;;;13.70;12.70;;;16.60;99.90;;;;;;5018121;28;20308;-79
2021/09/14 06:35:16;;;;;;;14.80;13.70;;;16.70;99.90;;;;;;5045938;28;20238;-79
2021/09/14 06:37:47;;;;;;;14.63;13.63;;;16.80;99.90;;;;;;5019861;28;20198;-78
2021/09/14 06:40:16;;;;;;;14.90;13.70;;;16.90;99.90;;;;;;5024810;28;20230;-79
2021/09/14 06:42:44;;;;;;;7.80;7.00;;;16.90;99.90;;;;;;5028751;23;20233;-78
2021/09/14 06:45:31;;;;;;;13.57;12.57;;;17.00;99.90;;;;;;4968992;28;20289;-77
2021/09/14 06:48:03;;;;;;;11.43;10.53;;;17.10;99.90;;;;;;4971813;28;20248;-77
2021/09/14 06:50:31;;;;;;;14.33;13.33;;;17.20;99.90;;;;;;4968484;28;20260;-77
2021/09/14 06:53:00;;;;;;;10.13;9.33;;;17.30;99.90;;;;;;4970127;28;20221;-77
2021/09/14 06:55:27;;;;;;;13.37;12.47;;;17.40;99.90;;;;;;4955442;28;20218;-77
2021/09/14 06:57:54;;;;;;;8.77;7.97;;;17.60;99.90;;;;;;4955080;28;20225;-77
2021/09/14 07:00:22;;;;;;;7.80;7.10;;;17.70;99.90;;;;;;4955460;28;20208;-77
2021/09/14 07:02:49;;;;;;;8.23;7.43;;;17.90;99.90;;;;;;4955615;28;20221;-77
2021/09/14 07:05:18;;;;;;;7.60;6.90;;;18.00;99.90;;;;;;4954290;28;20635;-77
2021/09/14 07:07:45;;;;;;;16.13;15.00;;;18.30;99.90;;;;;;4955156;28;20257;-77
2021/09/14 07:10:13;;;;;;;15.63;14.53;;;18.60;99.90;;;;;;4955216;28;20503;-77
2021/09/14 07:12:40;;;;;;;16.37;15.27;;;18.90;99.90;;;;;;4986152;28;20708;-77
2021/09/14 07:15:09;;;;;;;16.87;15.50;;;19.20;99.90;;;;;;4954987;28;20214;-77
2021/09/14 07:17:37;;;;;;;8.87;8.07;;;19.40;99.90;;;;;;4954950;28;20202;-77
2021/09/14 07:20:06;;;;;;;8.20;7.47;;;19.70;99.90;;;;;;4954827;28;20723;-77
2021/09/14 07:22:32;;;;;;;8.30;7.43;;;20.00;99.90;;;;;;4954905;28;20227;-77
2021/09/14 07:24:59;;;;;;;10.67;9.63;;;20.40;99.90;;;;;;4953691;28;20654;-77
2021/09/14 07:27:27;;;;;;;16.70;15.60;;;20.70;99.90;;;;;;4954975;28;20217;-77
2021/09/14 07:29:55;;;;;;;15.30;14.20;;;20.90;99.90;;;;;;4953115;28;20635;-77
2021/09/14 07:32:21;;;;;;;13.23;12.30;;;21.10;99.90;;;;;;4953321;28;20221;-77
2021/09/14 07:34:48;;;;;;;15.53;14.33;;;21.30;99.90;;;;;;4952719;28;20229;-78
2021/09/14 07:37:15;;;;;;;14.00;12.90;;;21.50;99.90;;;;;;4954908;28;20202;-78
2021/09/14 07:39:44;;;;;;;14.30;13.30;;;21.80;99.90;;;;;;4953287;28;20476;-78
2021/09/14 07:42:18;;;;;;;15.00;14.00;;;22.00;99.90;;;;;;4954360;28;20578;-78
2021/09/14 07:44:46;;;;;;;10.67;9.57;;;22.20;99.90;;;;;;4954418;28;20698;-77
2021/09/14 07:47:13;;;;;;;11.67;10.50;;;22.50;99.90;;;;;;4937382;29;20207;-78
2021/09/14 07:49:40;;;;;;;15.73;14.53;;;22.80;99.90;;;;;;4954414;28;20620;-77
2021/09/14 07:52:07;;;;;;;14.97;13.77;;;23.10;99.90;;;;;;4954764;28;20202;-77
2021/09/14 07:54:34;;;;;;;7.17;6.50;;;23.20;99.90;;;;;;4954263;28;20290;-78
2021/09/14 07:57:01;;;;;;;6.70;6.03;;;23.30;99.90;;;;;;4938507;29;20257;-77
2021/09/14 07:59:28;;;;;;;10.33;9.40;;;23.40;99.90;;;;;;4934599;29;20253;-78
2021/09/14 08:01:56;;;;;;;6.67;5.90;;;23.60;99.90;;;;;;4956382;28;20208;-79
2021/09/14 08:04:23;;;;;;;8.40;7.60;;;23.70;99.90;;;;;;4956238;28;20202;-77
2021/09/14 08:06:50;;;;;;;7.13;6.30;;;23.80;99.90;;;;;;4970889;28;20249;-78
2021/09/14 08:09:17;;;;;;;13.67;12.57;;;23.90;99.90;;;;;;4956138;28;20233;-80
2021/09/14 08:11:44;;;;;;;13.53;12.43;;;24.10;99.90;;;;;;4970723;28;20199;-78
2021/09/14 08:14:11;;;;;;;8.03;6.20;;;24.30;99.90;;;;;;4938074;29;20700;-78
2021/09/14 08:16:38;;;;;;;9.53;8.73;;;24.30;99.90;;;;;;4950545;29;20558;-78
2021/09/14 08:19:06;;;;;;;11.23;10.43;;;24.50;99.90;;;;;;4952950;29;20202;-78
2021/09/14 08:21:33;;;;;;;13.37;12.17;;;24.80;99.90;;;;;;4943428;29;20664;-78
2021/09/14 08:23:59;;;;;;;13.50;12.60;;;24.60;99.90;;;;;;4934208;29;20215;-78
2021/09/14 08:26:26;;;;;;;6.00;5.40;;;24.30;99.90;;;;;;4937195;29;20219;-78
2021/09/14 08:28:53;;;;;;;9.00;5.90;;;24.30;99.90;;;;;;4932832;29;20199;-78
2021/09/14 08:31:25;;;;;;;13.17;12.27;;;24.70;99.90;;;;;;4931216;29;20195;-78
2021/09/14 08:33:52;;;;;;;12.60;11.77;;;25.10;99.90;;;;;;4931689;29;20270;-78
2021/09/14 08:36:20;;;;;;;13.60;12.70;;;25.30;99.90;;;;;;4937190;29;20262;-78
2021/09/14 08:38:47;;;;;;;13.73;12.83;;;25.20;99.90;;;;;;4921551;29;20207;-78
2021/09/14 08:41:16;;;;;;;13.60;12.70;;;25.50;99.90;;;;;;4937603;29;20667;-78
2021/09/14 08:43:44;;;;;;;13.70;12.80;;;25.70;99.90;;;;;;4938086;29;20278;-78
2021/09/14 08:46:12;;;;;;;11.20;10.40;;;25.90;99.90;;;;;;4919948;29;20199;-78
2021/09/14 08:48:39;;;;;;;12.33;11.33;;;26.20;99.90;;;;;;4921125;29;20226;-78
2021/09/14 08:51:07;;;;;;;10.60;9.70;;;26.30;99.90;;;;;;4938520;28;20258;-78
2021/09/14 08:53:36;;;;;;;11.67;10.90;;;26.40;99.90;;;;;;4936975;29;20231;-78
2021/09/14 08:56:05;;;;;;;13.23;12.40;;;26.70;99.90;;;;;;4936969;29;20267;-78
2021/09/14 08:58:32;;;;;;;13.27;12.47;;;26.80;99.90;;;;;;4940301;29;20243;-78
2021/09/14 09:00:58;;;;;;;13.80;12.87;;;26.90;99.90;;;;;;4932791;29;20242;-78
2021/09/14 09:03:28;;;;;;;13.27;12.37;;;26.80;99.90;;;;;;4938083;29;20271;-78
2021/09/14 09:05:55;;;;;;;14.27;13.23;;;26.90;99.90;;;;;;4920748;29;20183;-78
2021/09/14 09:08:24;;;;;;;14.63;13.53;;;26.90;99.90;;;;;;4936791;29;20274;-78
2021/09/14 09:11:03;;;;;;;14.57;13.57;;;27.00;99.90;;;;;;4936951;29;20249;-78
2021/09/14 09:13:31;;;;;;;14.40;13.40;;;27.20;99.90;;;;;;4952214;28;20233;-78
2021/09/14 09:15:58;;;;;;;14.30;13.30;;;27.50;99.90;;;;;;4935781;29;20644;-77
2021/09/14 09:18:25;;;;;;;14.07;13.17;;;27.80;99.90;;;;;;4949689;28;20267;-78
2021/09/14 09:20:52;;;;;;;14.10;13.13;;;27.80;99.90;;;;;;4936083;29;20266;-78
2021/09/14 09:23:21;;;;;;;13.63;12.73;;;27.80;99.90;;;;;;4935231;29;20226;-78
2021/09/14 09:25:49;;;;;;;13.90;13.10;;;27.90;99.90;;;;;;4938909;29;20198;-78
2021/09/14 09:28:24;;;;;;;13.57;12.77;;;28.10;99.90;;;;;;4936992;29;20250;-78
2021/09/14 09:30:56;;;;;;;13.37;12.47;;;28.00;99.90;;;;;;4937184;29;20218;-77
2021/09/14 09:33:24;;;;;;;13.47;12.57;;;28.20;99.90;;;;;;4937475;29;20231;-78
2021/09/14 09:35:51;;;;;;;14.67;13.57;;;28.20;99.90;;;;;;4945672;28;20215;-77
2021/09/14 09:38:18;;;;;;;13.63;12.73;;;28.30;99.90;;;;;;4954942;28;20224;-79
2021/09/14 09:40:45;;;;;;;13.93;13.03;;;28.50;99.90;;;;;;4938033;29;20210;-78
2021/09/14 09:43:12;;;;;;;13.40;12.60;;;28.60;99.90;;;;;;4954815;28;20245;-78
2021/09/14 09:45:45;;;;;;;13.87;12.97;;;28.40;99.90;;;;;;4954443;28;20619;-78
2021/09/14 09:48:13;;;;;;;13.67;12.77;;;28.30;99.90;;;;;;4952858;28;20202;-78
2021/09/14 09:50:41;;;;;;;15.50;14.40;;;28.20;99.90;;;;;;4952980;28;20203;-78
2021/09/14 09:53:09;;;;;;;14.30;13.20;;;28.20;99.90;;;;;;4953110;28;20258;-78
2021/09/14 09:55:37;;;;;;;14.87;13.87;;;28.10;99.90;;;;;;4968449;28;20217;-78
2021/09/14 09:58:05;;;;;;;14.53;13.60;;;28.10;99.90;;;;;;4954933;28;20265;-77
2021/09/14 10:00:35;;;;;;;14.90;13.80;;;28.10;99.90;;;;;;4939132;29;20202;-78
2021/09/14 10:03:07;;;;;;;13.77;12.87;;;28.00;99.90;;;;;;4939108;29;20603;-78
2021/09/14 10:05:37;;;;;;;14.67;13.57;;;27.90;99.90;;;;;;4956328;28;20266;-78
2021/09/14 10:08:10;;;;;;;13.57;12.53;;;28.00;99.90;;;;;;4938796;28;20238;-78
2021/09/14 10:10:38;;;;;;;14.03;13.13;;;27.80;99.90;;;;;;4971070;28;20587;-78
2021/09/14 10:13:06;;;;;;;13.90;13.00;;;27.50;99.90;;;;;;4956190;28;20223;-77
2021/09/14 10:15:40;;;;;;;13.07;12.27;;;27.40;99.90;;;;;;4970850;28;20226;-78
2021/09/14 10:18:09;;;;;;;12.80;11.97;;;27.50;99.90;;;;;;4956046;28;20202;-78
2021/09/14 10:20:42;;;;;;;13.53;12.47;;;27.40;99.90;;;;;;4955960;28;20202;-77
2021/09/14 10:23:16;;;;;;;13.17;12.23;;;27.40;99.90;;;;;;4956217;28;20241;-77
2021/09/14 10:25:46;;;;;;;12.97;11.97;;;27.50;99.90;;;;;;4955772;28;20202;-77
2021/09/14 10:28:14;;;;;;;12.47;11.57;;;27.40;99.90;;;;;;4970697;28;20241;-78
2021/09/14 10:30:42;;;;;;;12.40;11.40;;;27.50;99.90;;;;;;4938633;29;20206;-77
2021/09/14 10:33:21;;;;;;;13.10;12.00;;;27.50;99.90;;;;;;4955943;28;20571;-77
2021/09/14 10:35:48;;;;;;;11.83;11.03;;;27.50;99.90;;;;;;4938430;29;20227;-77
2021/09/14 10:38:16;;;;;;;12.17;11.27;;;27.50;99.90;;;;;;4938258;29;20210;-77
2021/09/14 10:40:45;;;;;;;13.27;12.27;;;27.50;99.90;;;;;;4938303;29;20207;-77
2021/09/14 10:43:27;;;;;;;12.73;11.90;;;27.30;99.90;;;;;;4955510;28;20241;-78
2021/09/14 10:45:54;;;;;;;12.97;12.10;;;27.40;99.90;;;;;;4938136;29;20734;-77
2021/09/14 10:48:25;;;;;;;12.27;11.47;;;27.40;99.90;;;;;;4951615;28;20696;-77
2021/09/14 10:50:53;;;;;;;12.93;12.03;;;27.30;99.90;;;;;;4948964;28;20250;-77
2021/09/14 10:53:29;;;;;;;11.60;10.77;;;27.20;99.90;;;;;;4938625;29;20218;-78
2021/09/14 10:55:58;;;;;;;11.83;10.93;;;27.10;99.90;;;;;;4951432;28;20284;-77
2021/09/14 10:58:25;;;;;;;12.10;11.30;;;27.10;99.90;;;;;;4955166;28;20206;-77
2021/09/14 11:00:53;;;;;;;11.60;10.77;;;27.20;99.90;;;;;;4948325;28;20569;-78
2021/09/14 11:03:20;;;;;;;10.93;10.13;;;27.20;99.90;;;;;;4955332;28;20778;-78
2021/09/14 11:05:50;;;;;;;11.17;10.37;;;27.30;99.90;;;;;;4955575;28;20254;-78
2021/09/14 11:08:22;;;;;;;11.07;10.27;;;27.40;99.90;;;;;;4953541;28;20230;-78
2021/09/14 11:10:48;;;;;;;11.47;10.67;;;27.50;99.90;;;;;;4954743;28;20206;-78
2021/09/14 11:13:21;;;;;;;11.33;10.53;;;27.50;99.90;;;;;;4954924;28;20262;-78
2021/09/14 11:15:49;;;;;;;10.80;10.10;;;27.40;99.90;;;;;;4969858;28;20226;-78
2021/09/14 11:18:23;;;;;;;11.13;10.33;;;27.40;99.90;;;;;;4953485;28;20206;-77
2021/09/14 11:20:52;;;;;;;11.50;10.70;;;27.40;99.90;;;;;;4929942;29;20193;-78
2021/09/14 11:23:26;;;;;;;11.27;10.57;;;27.30;99.90;;;;;;4937515;29;20699;-77
2021/09/14 11:25:55;;;;;;;11.20;10.40;;;27.10;99.90;;;;;;4935822;29;20209;-77
2021/09/14 11:28:22;;;;;;;11.57;10.67;;;27.10;99.90;;;;;;4937346;29;20301;-77
2021/09/14 11:30:55;;;;;;;11.10;10.23;;;27.00;99.90;;;;;;4937362;28;20190;-77
2021/09/14 11:33:22;;;;;;;10.77;10.03;;;27.00;99.90;;;;;;4954693;28;20242;-77
2021/09/14 11:35:50;;;;;;;11.10;10.30;;;27.00;99.90;;;;;;4968893;28;20219;-77
2021/09/14 11:38:19;;;;;;;11.50;10.70;;;27.00;99.90;;;;;;4947002;28;20207;-77
2021/09/14 11:40:49;;;;;;;11.47;10.67;;;27.10;99.90;;;;;;4937237;29;20203;-77
2021/09/14 11:43:21;;;;;;;10.30;9.70;;;27.30;99.90;;;;;;4954720;28;20647;-77
2021/09/14 11:45:49;;;;;;;10.50;9.70;;;27.40;99.90;;;;;;4937262;29;20198;-77
2021/09/14 11:48:19;;;;;;;10.23;9.53;;;27.60;99.90;;;;;;4954051;28;20199;-77
2021/09/14 11:50:47;;;;;;;10.30;9.60;;;27.70;99.90;;;;;;4939132;29;20491;-77
2021/09/14 11:53:16;;;;;;;10.13;9.47;;;27.70;99.90;;;;;;4938938;29;20294;-80
2021/09/14 11:55:45;;;;;;;10.27;9.57;;;27.70;99.90;;;;;;4956378;28;20215;-77
2021/09/14 11:58:13;;;;;;;10.77;10.07;;;27.50;99.90;;;;;;4955953;28;20195;-77
2021/09/14 12:00:42;;;;;;;10.80;10.00;;;27.50;99.90;;;;;;4955883;28;20202;-77
2021/09/14 12:03:09;;;;;;;10.13;9.50;;;27.50;99.90;;;;;;4937887;28;20730;-80
2021/09/14 12:05:37;;;;;;;10.63;9.93;;;27.40;99.90;;;;;;4954269;28;20548;-78
2021/09/14 12:08:09;;;;;;;10.43;9.73;;;27.40;99.90;;;;;;4954897;28;20249;-79
2021/09/14 12:10:45;;;;;;;10.63;9.93;;;27.50;99.90;;;;;;4965536;28;20494;-78
2021/09/14 12:13:16;;;;;;;11.40;10.60;;;27.60;99.90;;;;;;4933560;29;20226;-78
2021/09/14 12:15:42;;;;;;;10.97;10.17;;;27.80;99.90;;;;;;4955208;29;20285;-78
2021/09/14 12:18:14;;;;;;;10.87;10.17;;;27.80;99.90;;;;;;4954624;29;20199;-76
2021/09/14 12:20:41;;;;;;;10.80;10.10;;;27.90;99.90;;;;;;4954566;28;20616;-78
2021/09/14 12:23:08;;;;;;;10.80;10.07;;;27.90;99.90;;;;;;4954633;28;20265;-77
2021/09/14 12:25:35;;;;;;;10.57;9.77;;;28.10;99.90;;;;;;4955684;28;20250;-78
2021/09/14 12:28:03;;;;;;;10.97;10.23;;;28.20;99.90;;;;;;4954969;29;20198;-79
2021/09/14 12:30:30;;;;;;;11.27;10.57;;;28.40;99.90;;;;;;4942563;29;20309;-79
2021/09/14 12:32:57;;;;;;;11.30;10.60;;;28.50;99.90;;;;;;4940998;29;20241;-76
2021/09/14 12:35:24;;;;;;;11.57;10.87;;;28.50;99.90;;;;;;4947360;29;20313;-78
2021/09/14 12:37:51;;;;;;;11.03;10.33;;;28.50;99.90;;;;;;4941657;29;20194;-82
2021/09/14 12:40:18;;;;;;;11.70;10.90;;;28.50;99.90;;;;;;4942615;29;20214;-78
2021/09/14 12:42:45;;;;;;;11.70;11.00;;;28.40;99.90;;;;;;4931640;29;20238;-79
2021/09/14 12:45:13;;;;;;;11.57;10.87;;;28.50;99.90;;;;;;4941430;29;20204;-77
2021/09/14 12:47:40;;;;;;;12.20;11.40;;;28.40;99.90;;;;;;4942234;29;20198;-78
2021/09/14 12:50:08;;;;;;;11.80;11.00;;;28.40;99.90;;;;;;4939780;29;20211;-76
2021/09/14 12:52:35;;;;;;;10.83;10.13;;;28.40;99.90;;;;;;4941505;29;20230;-77
2021/09/14 12:55:02;;;;;;;11.13;10.23;;;28.50;99.90;;;;;;4940149;29;20199;-77
2021/09/14 12:57:28;;;;;;;11.20;10.50;;;28.60;99.90;;;;;;4951835;28;20277;-76
2021/09/14 12:59:55;;;;;;;11.87;11.07;;;28.50;99.90;;;;;;4953375;28;20199;-76
2021/09/14 13:02:23;;;;;;;11.47;10.67;;;28.60;99.90;;;;;;4959159;28;20249;-75
2021/09/14 13:04:50;;;;;;;10.90;10.20;;;28.50;99.90;;;;;;4945317;28;20204;-75
2021/09/14 13:07:17;;;;;;;10.27;9.57;;;28.40;99.90;;;;;;4953070;28;20672;-75
2021/09/14 13:09:44;;;;;;;10.40;9.63;;;28.30;99.90;;;;;;4953005;28;20235;-75
2021/09/14 13:12:18;;;;;;;11.13;10.33;;;28.30;99.90;;;;;;4952996;28;20261;-75
2021/09/14 13:17:31;;;;;;;10.70;9.90;;;28.00;99.90;;;;;;4953737;28;20507;-76